Time;durP1;ratioP1;P1;durP2;ratioP2;P2;SDS_P1;SDS_P2;PMS_P1;PMS_P2;Temp;Humidity;BMP_temperature;BMP_pressure;BME280_temperature;BME280_humidity;BME280_pressure;Samples;Min_cycle;Max_cycle;Signal;HPM_P1;HPM_P2
2022/09/16 00:00:44;;;;;;;0.20;0.20;;;11.20;99.90;;;;;;5067596;28;20455;-80
2022/09/16 00:03:11;;;;;;;0.20;0.20;;;11.30;99.90;;;;;;5061110;28;20802;-80
2022/09/16 00:05:42;;;;;;;0.20;0.20;;;11.20;99.90;;;;;;5054019;28;20563;-80
2022/09/16 00:08:08;;;;;;;0.20;0.20;;;11.10;99.90;;;;;;5067517;28;20455;-80
2022/09/16 00:10:34;;;;;;;0.20;0.20;;;11.10;99.90;;;;;;5061117;28;20804;-80
2022/09/16 00:13:00;;;;;;;0.20;0.20;;;11.20;99.90;;;;;;5054087;28;21097;-80
2022/09/16 00:15:25;;;;;;;0.20;0.20;;;11.20;99.90;;;;;;5062919;28;20503;-80
2022/09/16 00:17:51;;;;;;;0.20;0.20;;;11.10;99.90;;;;;;5078323;28;20441;-81
2022/09/16 00:20:16;;;;;;;0.20;0.20;;;11.10;99.90;;;;;;5067500;28;20194;-81
2022/09/16 00:22:42;;;;;;;0.20;0.20;;;11.10;99.90;;;;;;5066895;28;20263;-82
2022/09/16 00:25:08;;;;;;;0.20;0.20;;;11.00;99.90;;;;;;5066264;28;20221;-81
2022/09/16 00:27:33;;;;;;;0.20;0.20;;;11.00;99.90;;;;;;5068537;28;20272;-82
2022/09/16 00:29:59;;;;;;;0.20;0.20;;;11.10;99.90;;;;;;5064778;28;20597;-82
2022/09/16 00:32:24;;;;;;;0.20;0.20;;;11.00;99.90;;;;;;5065826;28;20697;-82
2022/09/16 00:34:50;;;;;;;0.20;0.20;;;11.00;99.90;;;;;;5067097;28;20260;-80
2022/09/16 00:37:16;;;;;;;0.20;0.20;;;10.90;99.90;;;;;;5067685;28;20267;-81
2022/09/16 00:39:42;;;;;;;0.20;0.20;;;10.90;99.90;;;;;;5068362;28;20209;-81
2022/09/16 00:42:10;;;;;;;0.20;0.20;;;11.00;99.90;;;;;;5065818;28;20271;-82
2022/09/16 00:44:57;;;;;;;0.20;0.20;;;10.90;99.90;;;;;;5069802;28;20259;-83
2022/09/16 00:47:34;;;;;;;0.20;0.20;;;10.80;99.90;;;;;;5064426;28;20439;-81
2022/09/16 00:50:12;;;;;;;0.20;0.20;;;10.90;99.90;;;;;;5063880;28;20503;-81
2022/09/16 00:52:39;;;;;;;0.20;0.20;;;10.90;99.90;;;;;;5053124;28;20553;-81
2022/09/16 00:55:09;;;;;;;0.20;0.20;;;10.80;99.90;;;;;;5057901;28;20484;-80
2022/09/16 00:57:35;;;;;;;0.20;0.20;;;10.70;99.90;;;;;;5080712;28;20444;-80
2022/09/16 01:00:01;;;;;;;0.20;0.20;;;10.70;99.90;;;;;;5057546;28;20449;-81
2022/09/16 01:02:27;;;;;;;0.20;0.20;;;10.70;99.90;;;;;;5065272;28;21308;-81
2022/09/16 01:04:58;;;;;;;0.20;0.20;;;10.70;99.90;;;;;;5060957;28;20476;-80
2022/09/16 01:07:33;;;;;;;0.20;0.20;;;10.70;99.90;;;;;;5081568;28;20197;-81
2022/09/16 01:09:58;;;;;;;0.20;0.20;;;10.70;99.90;;;;;;5054593;28;20440;-81
2022/09/16 01:12:27;;;;;;;0.30;0.30;;;10.60;99.90;;;;;;5066570;28;20463;-81
2022/09/16 01:14:52;;;;;;;0.20;0.20;;;10.50;99.90;;;;;;5065961;28;20247;-81
2022/09/16 01:17:36;;;;;;;0.20;0.20;;;10.60;99.90;;;;;;5066003;28;20956;-82
2022/09/16 01:20:25;;;;;;;0.20;0.20;;;10.50;99.90;;;;;;5064396;28;20190;-81
2022/09/16 01:23:29;;;;;;;0.20;0.20;;;10.50;99.90;;;;;;5065265;28;20442;-81
2022/09/16 01:26:35;;;;;;;0.20;0.20;;;10.50;99.90;;;;;;5059813;28;20458;-81
2022/09/16 01:29:15;;;;;;;0.20;0.20;;;10.50;99.90;;;;;;5062138;28;20440;-80
2022/09/16 01:31:49;;;;;;;0.20;0.20;;;10.50;99.90;;;;;;5060386;28;20440;-81
2022/09/16 01:34:25;;;;;;;0.20;0.20;;;10.40;99.90;;;;;;5061652;28;21051;-81
2022/09/16 01:37:09;;;;;;;0.20;0.20;;;10.50;99.90;;;;;;5057738;28;20445;-80
2022/09/16 01:39:45;;;;;;;0.20;0.20;;;10.50;99.90;;;;;;5070773;28;20501;-81
2022/09/16 01:42:29;;;;;;;0.20;0.20;;;10.50;99.90;;;;;;5066518;28;20471;-81
2022/09/16 01:45:07;;;;;;;0.20;0.20;;;10.40;99.90;;;;;;5066520;28;20495;-81
2022/09/16 01:47:39;;;;;;;0.20;0.20;;;10.40;99.90;;;;;;5061074;28;20441;-81
2022/09/16 01:50:22;;;;;;;0.20;0.20;;;10.40;99.90;;;;;;5065729;28;20448;-81
2022/09/16 01:53:17;;;;;;;0.20;0.20;;;10.40;99.90;;;;;;5067075;28;20440;-81
2022/09/16 01:55:53;;;;;;;0.20;0.20;;;10.40;99.90;;;;;;5057235;28;20472;-81
2022/09/16 01:58:42;;;;;;;0.20;0.20;;;10.40;99.90;;;;;;5053091;28;20498;-81
2022/09/16 02:01:22;;;;;;;0.20;0.20;;;10.40;99.90;;;;;;5065569;28;20485;-81
2022/09/16 02:03:54;;;;;;;0.20;0.20;;;10.40;99.90;;;;;;5063952;28;20469;-81
2022/09/16 02:06:24;;;;;;;0.20;0.20;;;10.40;99.90;;;;;;5062606;28;20589;-81
2022/09/16 02:08:55;;;;;;;0.20;0.20;;;10.40;99.90;;;;;;5064379;28;20525;-81
2022/09/16 02:11:22;;;;;;;0.20;0.20;;;10.40;99.90;;;;;;5066196;28;20444;-82
2022/09/16 02:14:01;;;;;;;0.23;0.23;;;10.40;99.90;;;;;;5055694;28;20443;-82
2022/09/16 02:16:37;;;;;;;0.20;0.20;;;10.50;99.90;;;;;;5064581;28;20988;-81
2022/09/16 02:19:11;;;;;;;0.20;0.20;;;10.50;99.90;;;;;;5056885;28;20551;-82
2022/09/16 02:21:39;;;;;;;0.20;0.20;;;10.40;99.90;;;;;;5076812;28;20975;-81
2022/09/16 02:24:12;;;;;;;0.20;0.20;;;10.40;99.90;;;;;;5054080;28;20492;-83
2022/09/16 02:26:43;;;;;;;0.20;0.20;;;10.50;99.90;;;;;;5055931;28;20436;-81
2022/09/16 02:29:16;;;;;;;0.20;0.20;;;10.60;99.90;;;;;;5062468;28;20528;-81
2022/09/16 02:31:43;;;;;;;0.20;0.20;;;10.60;99.90;;;;;;5063879;28;20531;-81
2022/09/16 02:34:16;;;;;;;0.20;0.20;;;10.60;99.90;;;;;;5054120;28;20475;-80
2022/09/16 02:36:44;;;;;;;0.20;0.20;;;10.60;99.90;;;;;;5063104;28;20779;-83
2022/09/16 02:39:15;;;;;;;0.20;0.20;;;10.60;99.90;;;;;;5057263;28;20444;-81
2022/09/16 02:41:41;;;;;;;0.20;0.20;;;10.60;99.90;;;;;;5064075;28;20932;-80
2022/09/16 02:44:08;;;;;;;0.20;0.20;;;10.60;99.90;;;;;;5065992;28;20469;-81
2022/09/16 02:46:43;;;;;;;0.20;0.20;;;10.60;99.90;;;;;;5061527;28;20436;-82
2022/09/16 02:49:30;;;;;;;0.20;0.20;;;10.60;99.90;;;;;;5055558;28;21087;-81
2022/09/16 02:51:55;;;;;;;0.20;0.20;;;10.60;99.90;;;;;;5066433;28;20444;-81
2022/09/16 02:54:29;;;;;;;0.20;0.20;;;10.60;99.90;;;;;;5057798;28;20769;-82
2022/09/16 02:56:56;;;;;;;0.30;0.30;;;10.60;99.90;;;;;;5071945;28;20737;-81
2022/09/16 02:59:22;;;;;;;0.30;0.30;;;10.70;99.90;;;;;;5067629;28;20853;-82
2022/09/16 03:01:47;;;;;;;0.20;0.20;;;10.60;99.90;;;;;;5066926;28;20797;-82
2022/09/16 03:04:15;;;;;;;0.20;0.20;;;10.60;99.90;;;;;;5052624;28;20475;-82
2022/09/16 03:06:41;;;;;;;0.20;0.20;;;10.60;99.90;;;;;;5067571;28;20194;-82
2022/09/16 03:09:10;;;;;;;0.20;0.20;;;10.50;99.90;;;;;;5070918;28;20521;-83
2022/09/16 03:12:05;;;;;;;0.20;0.20;;;10.50;99.90;;;;;;5069626;28;20174;-82
2022/09/16 03:14:37;;;;;;;0.20;0.20;;;10.50;99.90;;;;;;5069264;28;20463;-82
2022/09/16 03:17:40;;;;;;;0.20;0.20;;;10.50;99.90;;;;;;5067307;28;20527;-81
2022/09/16 03:20:36;;;;;;;0.20;0.20;;;10.50;99.90;;;;;;5053924;28;20444;-81
2022/09/16 03:23:44;;;;;;;0.30;0.30;;;10.40;99.90;;;;;;5065057;28;20444;-82
2022/09/16 03:26:33;;;;;;;0.20;0.20;;;10.50;99.90;;;;;;5063976;28;20447;-81
2022/09/16 03:29:06;;;;;;;0.20;0.20;;;10.50;99.90;;;;;;5067411;28;21244;-82
2022/09/16 03:31:45;;;;;;;0.20;0.20;;;10.50;99.90;;;;;;5067439;28;20450;-82
2022/09/16 03:34:32;;;;;;;0.20;0.20;;;10.40;99.90;;;;;;5068793;28;20479;-82
2022/09/16 03:37:04;;;;;;;0.20;0.20;;;10.40;99.90;;;;;;5062143;28;20509;-82
2022/09/16 03:39:30;;;;;;;0.20;0.20;;;10.40;99.90;;;;;;5069290;28;20452;-82
2022/09/16 03:42:03;;;;;;;0.20;0.20;;;10.40;99.90;;;;;;5068669;28;20501;-82
2022/09/16 03:44:31;;;;;;;0.20;0.20;;;10.40;99.90;;;;;;5068671;28;20514;-81
2022/09/16 03:46:56;;;;;;;0.20;0.20;;;10.40;99.90;;;;;;5066706;28;20436;-82
2022/09/16 03:49:22;;;;;;;0.20;0.20;;;10.40;99.90;;;;;;5070248;28;20444;-81
2022/09/16 03:51:47;;;;;;;0.20;0.20;;;10.40;99.90;;;;;;5070453;28;20685;-80
2022/09/16 03:54:13;;;;;;;0.20;0.20;;;10.40;99.90;;;;;;5068555;28;20182;-82
2022/09/16 03:56:38;;;;;;;0.20;0.20;;;10.30;99.90;;;;;;5070542;28;20189;-82
2022/09/16 03:59:04;;;;;;;0.20;0.20;;;10.30;99.90;;;;;;5066828;28;20247;-82
2022/09/16 04:01:29;;;;;;;0.20;0.20;;;10.30;99.90;;;;;;5063725;28;20186;-82
2022/09/16 04:03:55;;;;;;;0.20;0.20;;;10.30;99.90;;;;;;5061550;28;20575;-82
2022/09/16 04:06:20;;;;;;;0.20;0.20;;;10.30;99.90;;;;;;5066274;28;20202;-82
2022/09/16 04:08:46;;;;;;;0.20;0.20;;;10.30;99.90;;;;;;5062886;28;20261;-81
2022/09/16 04:11:12;;;;;;;0.20;0.20;;;10.30;99.90;;;;;;5068419;28;20239;-82
2022/09/16 04:13:37;;;;;;;0.20;0.20;;;10.30;99.90;;;;;;5068526;28;20193;-81
2022/09/16 04:16:03;;;;;;;0.20;0.20;;;10.30;99.90;;;;;;5065043;28;20585;-82
2022/09/16 04:18:30;;;;;;;0.20;0.20;;;10.30;99.90;;;;;;5065438;28;20201;-81
2022/09/16 04:20:57;;;;;;;0.20;0.20;;;10.30;99.90;;;;;;5065165;28;20432;-82
2022/09/16 04:23:27;;;;;;;0.20;0.20;;;10.30;99.90;;;;;;5069352;28;20448;-82
2022/09/16 04:25:58;;;;;;;0.20;0.20;;;10.30;99.90;;;;;;5065447;28;21014;-81
2022/09/16 04:28:24;;;;;;;0.20;0.20;;;10.40;99.90;;;;;;5066151;28;20444;-82
2022/09/16 04:30:50;;;;;;;0.20;0.20;;;10.40;99.90;;;;;;5059260;28;20961;-81
2022/09/16 04:33:16;;;;;;;0.20;0.20;;;10.40;99.90;;;;;;5068775;28;20865;-81
2022/09/16 04:35:42;;;;;;;0.20;0.20;;;10.40;99.90;;;;;;5064265;28;20444;-81
2022/09/16 04:38:07;;;;;;;0.30;0.30;;;10.30;99.90;;;;;;5066438;28;20295;-81
2022/09/16 04:40:33;;;;;;;0.20;0.20;;;10.30;99.90;;;;;;5057437;28;20668;-81
2022/09/16 04:42:58;;;;;;;0.20;0.20;;;10.30;99.90;;;;;;5064549;28;20193;-81
2022/09/16 04:45:24;;;;;;;0.20;0.20;;;10.40;99.90;;;;;;5067541;28;20217;-81
2022/09/16 04:47:56;;;;;;;0.20;0.20;;;10.40;99.90;;;;;;5062627;28;20190;-81
2022/09/16 04:50:22;;;;;;;0.20;0.20;;;10.30;99.90;;;;;;5066304;28;20222;-80
2022/09/16 04:52:47;;;;;;;0.20;0.20;;;10.30;99.90;;;;;;5068095;28;20845;-80
2022/09/16 04:55:13;;;;;;;0.20;0.20;;;10.20;99.90;;;;;;5068559;28;20196;-80
2022/09/16 04:57:39;;;;;;;0.20;0.20;;;10.20;99.90;;;;;;5067798;28;20197;-81
2022/09/16 05:00:05;;;;;;;0.20;0.20;;;10.30;99.90;;;;;;5063608;28;20205;-81
2022/09/16 05:02:31;;;;;;;0.20;0.20;;;10.20;99.90;;;;;;5059890;28;20256;-81
2022/09/16 05:04:56;;;;;;;0.20;0.20;;;10.20;99.90;;;;;;5066867;28;20480;-81
2022/09/16 05:07:22;;;;;;;0.20;0.20;;;10.20;99.90;;;;;;5067367;28;20304;-80
2022/09/16 05:09:47;;;;;;;0.20;0.20;;;10.20;99.90;;;;;;5067989;28;20208;-81
2022/09/16 05:12:13;;;;;;;0.20;0.20;;;10.20;99.90;;;;;;5078725;28;20189;-81
2022/09/16 05:14:38;;;;;;;0.20;0.20;;;10.20;99.90;;;;;;5064960;28;20193;-81
2022/09/16 05:17:04;;;;;;;0.20;0.20;;;10.20;99.90;;;;;;5060857;28;20201;-81
2022/09/16 05:19:29;;;;;;;0.20;0.20;;;10.20;99.90;;;;;;5063774;28;20179;-81
2022/09/16 05:21:55;;;;;;;0.20;0.20;;;10.30;99.90;;;;;;5065866;28;20645;-80
2022/09/16 05:24:20;;;;;;;0.20;0.20;;;10.40;99.90;;;;;;5065180;28;20225;-80
2022/09/16 05:26:46;;;;;;;0.20;0.20;;;10.40;99.90;;;;;;5073572;28;20235;-82
2022/09/16 05:29:14;;;;;;;0.20;0.20;;;10.40;99.90;;;;;;5066688;28;20393;-81
2022/09/16 05:31:41;;;;;;;0.20;0.20;;;10.40;99.90;;;;;;5060609;28;20186;-80
2022/09/16 05:34:13;;;;;;;0.30;0.30;;;10.50;99.90;;;;;;5062845;28;20480;-81
2022/09/16 05:36:42;;;;;;;0.20;0.20;;;10.50;99.90;;;;;;5051217;28;20532;-81
2022/09/16 05:39:08;;;;;;;0.20;0.20;;;10.50;99.90;;;;;;5069636;28;20416;-81
2022/09/16 05:41:34;;;;;;;0.20;0.20;;;10.50;99.90;;;;;;5066938;28;20923;-81
2022/09/16 05:44:00;;;;;;;0.20;0.20;;;10.50;99.90;;;;;;5069672;28;20496;-81
2022/09/16 05:46:26;;;;;;;0.20;0.20;;;10.50;99.90;;;;;;5067888;28;20686;-82
2022/09/16 05:48:52;;;;;;;0.20;0.20;;;10.50;99.90;;;;;;5063348;28;20441;-79
2022/09/16 05:51:20;;;;;;;0.20;0.20;;;10.50;99.90;;;;;;5079734;28;21315;-81
2022/09/16 05:53:47;;;;;;;0.20;0.20;;;10.50;99.90;;;;;;5068138;28;20468;-81
2022/09/16 05:56:17;;;;;;;0.20;0.20;;;10.50;99.90;;;;;;5066062;28;20451;-79
2022/09/16 05:58:43;;;;;;;0.20;0.20;;;10.50;99.90;;;;;;5069614;28;20523;-80
2022/09/16 06:01:10;;;;;;;0.30;0.30;;;10.50;99.90;;;;;;5066718;28;20480;-80
2022/09/16 06:03:37;;;;;;;0.20;0.20;;;10.60;99.90;;;;;;5067899;28;20440;-80
2022/09/16 06:06:06;;;;;;;0.20;0.20;;;10.70;99.90;;;;;;5065687;28;20448;-80
2022/09/16 06:08:34;;;;;;;0.20;0.20;;;10.70;99.90;;;;;;5069010;28;20440;-80
2022/09/16 06:11:06;;;;;;;0.20;0.20;;;10.70;99.90;;;;;;5069110;28;20444;-81
2022/09/16 06:13:32;;;;;;;0.20;0.20;;;10.90;99.90;;;;;;5067447;28;20806;-82
2022/09/16 06:15:58;;;;;;;0.20;0.20;;;11.00;99.90;;;;;;5068337;28;20459;-82
2022/09/16 06:18:25;;;;;;;0.20;0.20;;;11.00;99.90;;;;;;5069641;28;20435;-81
2022/09/16 06:20:51;;;;;;;0.20;0.20;;;11.10;99.90;;;;;;5059542;28;20439;-82
2022/09/16 06:23:17;;;;;;;0.20;0.20;;;11.00;99.90;;;;;;5069555;28;20416;-81
2022/09/16 06:25:43;;;;;;;0.20;0.20;;;11.10;99.90;;;;;;5067051;28;20308;-81
2022/09/16 06:28:10;;;;;;;0.20;0.20;;;11.10;99.90;;;;;;5068761;28;20565;-82
2022/09/16 06:30:36;;;;;;;0.20;0.20;;;11.10;99.90;;;;;;5067889;28;20455;-82
2022/09/16 06:33:02;;;;;;;0.20;0.20;;;11.20;99.90;;;;;;5058494;28;20476;-83
2022/09/16 06:35:28;;;;;;;0.20;0.20;;;11.40;99.90;;;;;;5067665;28;20461;-82
2022/09/16 06:37:54;;;;;;;0.20;0.20;;;11.60;99.90;;;;;;5065468;28;20206;-83
2022/09/16 06:40:19;;;;;;;0.20;0.20;;;11.70;99.90;;;;;;5062555;28;20440;-79
2022/09/16 06:42:45;;;;;;;0.20;0.20;;;11.90;99.90;;;;;;5063632;28;20185;-83
2022/09/16 06:45:10;;;;;;;0.20;0.20;;;11.60;99.90;;;;;;5060953;28;20719;-80
2022/09/16 06:47:36;;;;;;;0.20;0.20;;;11.30;99.90;;;;;;5064110;28;20269;-80
2022/09/16 06:50:04;;;;;;;0.20;0.20;;;11.10;99.90;;;;;;5068372;28;20724;-80
2022/09/16 06:52:30;;;;;;;0.20;0.20;;;11.10;99.90;;;;;;5065676;28;20190;-80
2022/09/16 06:54:55;;;;;;;0.20;0.20;;;11.00;99.90;;;;;;5064340;28;20450;-80
2022/09/16 06:57:22;;;;;;;0.20;0.20;;;10.90;99.90;;;;;;5082447;28;20809;-81
2022/09/16 06:59:51;;;;;;;0.20;0.20;;;10.90;99.90;;;;;;5068264;28;20182;-81
2022/09/16 07:02:18;;;;;;;0.20;0.20;;;11.00;99.90;;;;;;5068441;28;20498;-80
2022/09/16 07:04:44;;;;;;;0.20;0.20;;;11.00;99.90;;;;;;5068168;28;21273;-81
2022/09/16 07:07:10;;;;;;;0.20;0.20;;;11.20;99.90;;;;;;5066219;28;20447;-79
2022/09/16 07:09:35;;;;;;;0.20;0.20;;;11.30;99.90;;;;;;5067422;28;20186;-80
2022/09/16 07:12:01;;;;;;;0.20;0.20;;;11.60;99.90;;;;;;5067788;28;20181;-80
2022/09/16 07:14:27;;;;;;;0.20;0.20;;;11.70;99.90;;;;;;5068052;28;20662;-80
2022/09/16 07:16:53;;;;;;;0.20;0.20;;;11.90;99.90;;;;;;5066217;28;20194;-79
2022/09/16 07:19:18;;;;;;;0.20;0.20;;;12.20;99.90;;;;;;5062264;28;20952;-79
2022/09/16 07:21:44;;;;;;;0.20;0.20;;;12.20;99.90;;;;;;5065449;28;20763;-80
2022/09/16 07:24:13;;;;;;;0.20;0.20;;;12.10;99.90;;;;;;5065601;28;20217;-80
2022/09/16 07:26:41;;;;;;;0.20;0.20;;;12.00;99.90;;;;;;5065068;28;20207;-80
2022/09/16 07:29:09;;;;;;;0.20;0.20;;;11.90;99.90;;;;;;5069296;28;20431;-82
2022/09/16 07:31:36;;;;;;;0.20;0.20;;;12.00;99.90;;;;;;5066746;28;20463;-80
2022/09/16 07:34:03;;;;;;;0.20;0.20;;;12.20;99.90;;;;;;5066225;28;20541;-81
2022/09/16 07:36:34;;;;;;;0.20;0.20;;;12.20;99.90;;;;;;5070438;28;20426;-81
2022/09/16 07:38:59;;;;;;;0.20;0.20;;;12.30;99.90;;;;;;5067948;28;20455;-80
2022/09/16 07:41:27;;;;;;;0.10;0.10;;;12.40;99.90;;;;;;5071753;28;20443;-81
2022/09/16 07:43:57;;;;;;;0.20;0.20;;;12.40;99.90;;;;;;5069271;28;20255;-79
2022/09/16 07:46:24;;;;;;;0.20;0.20;;;12.30;99.90;;;;;;5067517;28;20539;-81
2022/09/16 07:48:49;;;;;;;0.20;0.20;;;12.40;99.90;;;;;;5070677;28;20436;-80
2022/09/16 07:51:21;;;;;;;0.20;0.20;;;12.60;99.90;;;;;;5072009;28;20431;-80
2022/09/16 07:53:47;;;;;;;0.20;0.20;;;12.90;99.90;;;;;;5070420;28;20285;-81
2022/09/16 07:56:18;;;;;;;0.10;0.10;;;13.00;99.90;;;;;;5067142;28;20972;-81
2022/09/16 07:58:45;;;;;;;0.20;0.20;;;12.90;99.90;;;;;;5068179;28;20493;-80
2022/09/16 08:01:13;;;;;;;0.10;0.10;;;12.80;99.90;;;;;;5058672;28;20432;-80
2022/09/16 08:03:40;;;;;;;0.20;0.20;;;13.00;99.90;;;;;;5062639;28;21006;-80
2022/09/16 08:06:09;;;;;;;0.20;0.20;;;13.10;99.90;;;;;;5069102;28;20801;-82
2022/09/16 08:08:35;;;;;;;0.20;0.20;;;13.20;99.90;;;;;;5068808;28;20505;-80
2022/09/16 08:11:01;;;;;;;0.20;0.20;;;13.40;99.90;;;;;;5066208;28;20959;-79
2022/09/16 08:13:29;;;;;;;0.10;0.10;;;13.60;99.90;;;;;;5067111;28;20220;-82
2022/09/16 08:16:00;;;;;;;0.10;0.10;;;13.80;99.90;;;;;;5068818;28;21179;-80
2022/09/16 08:18:26;;;;;;;0.10;0.10;;;14.20;99.90;;;;;;5068403;28;20459;-79
2022/09/16 08:20:51;;;;;;;0.10;0.10;;;14.40;99.90;;;;;;5071016;28;20452;-80
2022/09/16 08:23:17;;;;;;;0.10;0.10;;;14.30;99.90;;;;;;5068092;28;20194;-79
2022/09/16 08:25:44;;;;;;;0.10;0.10;;;14.50;99.90;;;;;;5069066;28;20259;-80
2022/09/16 08:28:15;;;;;;;0.10;0.10;;;14.50;99.90;;;;;;5070037;28;20446;-79
2022/09/16 08:30:41;;;;;;;0.10;0.10;;;14.60;99.90;;;;;;5066061;28;20443;-79
2022/09/16 08:33:07;;;;;;;0.10;0.10;;;14.60;99.90;;;;;;5072214;28;20975;-82
2022/09/16 08:35:32;;;;;;;0.10;0.10;;;14.90;99.90;;;;;;5063510;28;20448;-80
2022/09/16 08:37:58;;;;;;;0.10;0.10;;;14.90;99.90;;;;;;5070900;28;20185;-81
2022/09/16 08:40:25;;;;;;;0.10;0.10;;;14.80;99.90;;;;;;5068724;28;20201;-80
2022/09/16 08:43:24;;;;;;;0.10;0.10;;;14.60;99.90;;;;;;5072169;28;20538;-82
2022/09/16 08:45:57;;;;;;;0.10;0.10;;;14.40;99.90;;;;;;5068380;28;20480;-80
2022/09/16 08:48:53;;;;;;;0.10;0.10;;;14.20;99.90;;;;;;5067733;28;20962;-81
2022/09/16 08:51:20;;;;;;;0.10;0.10;;;14.00;99.90;;;;;;5068905;28;20436;-80
2022/09/16 08:53:57;;;;;;;0.10;0.10;;;14.10;99.90;;;;;;5068324;28;20573;-79
2022/09/16 08:56:26;;;;;;;0.10;0.10;;;14.20;99.90;;;;;;5068163;28;20531;-83
2022/09/16 08:59:00;;;;;;;0.10;0.10;;;14.50;99.90;;;;;;5062779;28;20525;-80
2022/09/16 09:01:39;;;;;;;0.10;0.10;;;14.60;99.90;;;;;;5057945;28;20987;-80
2022/09/16 09:04:05;;;;;;;0.10;0.10;;;15.10;99.90;;;;;;5065198;28;20531;-80
2022/09/16 09:06:54;;;;;;;0.10;0.10;;;15.20;99.90;;;;;;5069185;28;20483;-82
2022/09/16 09:09:58;;;;;;;0.10;0.10;;;15.30;99.90;;;;;;5061701;28;20248;-83
2022/09/16 09:12:33;;;;;;;0.10;0.10;;;15.40;99.90;;;;;;5068216;28;21007;-82
2022/09/16 09:15:26;;;;;;;0.10;0.10;;;15.50;99.90;;;;;;5069665;28;20427;-83
2022/09/16 09:18:29;;;;;;;0.10;0.10;;;15.50;99.90;;;;;;5058232;28;20444;-83
2022/09/16 09:21:25;;;;;;;0.10;0.10;;;15.30;99.90;;;;;;5056614;28;20451;-82
2022/09/16 09:24:00;;;;;;;0.10;0.10;;;15.10;99.90;;;;;;5061208;28;20468;-83
2022/09/16 09:26:35;;;;;;;0.10;0.10;;;15.30;99.90;;;;;;5068923;28;20469;-83
2022/09/16 09:29:32;;;;;;;0.10;0.10;;;15.20;99.90;;;;;;5069143;28;20432;-80
2022/09/16 09:32:16;;;;;;;0.10;0.10;;;15.10;99.90;;;;;;5068613;28;20451;-81
2022/09/16 09:35:01;;;;;;;0.10;0.10;;;14.80;99.90;;;;;;5066465;28;20526;-79
2022/09/16 09:37:45;;;;;;;0.10;0.10;;;14.40;99.90;;;;;;5066300;28;20489;-80
2022/09/16 09:40:20;;;;;;;0.10;0.10;;;14.40;99.90;;;;;;5061824;28;20448;-79
2022/09/16 09:42:56;;;;;;;0.10;0.10;;;14.60;99.90;;;;;;5063864;28;20482;-79
2022/09/16 09:45:33;;;;;;;0.10;0.10;;;14.40;99.90;;;;;;5098946;28;20479;-79
2022/09/16 09:48:21;;;;;;;0.10;0.10;;;14.60;99.90;;;;;;5065770;28;20436;-81
2022/09/16 09:50:48;;;;;;;0.10;0.10;;;14.80;99.90;;;;;;5068289;28;20436;-81
2022/09/16 09:53:19;;;;;;;0.10;0.10;;;14.70;99.90;;;;;;5066017;28;20447;-79
2022/09/16 09:55:44;;;;;;;0.10;0.10;;;14.60;99.90;;;;;;5070342;28;20924;-79
2022/09/16 09:58:10;;;;;;;0.10;0.10;;;14.40;99.90;;;;;;5058376;28;20456;-79
2022/09/16 10:00:35;;;;;;;0.10;0.10;;;14.10;99.90;;;;;;5068464;28;20239;-79
2022/09/16 10:03:09;;;;;;;0.10;0.10;;;13.90;99.90;;;;;;5067258;28;20182;-79
2022/09/16 10:05:35;;;;;;;0.10;0.10;;;13.80;99.90;;;;;;5067543;28;20236;-79
2022/09/16 10:08:29;;;;;;;0.10;0.10;;;14.10;99.90;;;;;;5067766;28;20432;-80
2022/09/16 10:11:02;;;;;;;0.20;0.20;;;15.30;99.90;;;;;;5060503;28;20689;-81
2022/09/16 10:13:29;;;;;;;0.10;0.10;;;16.40;99.90;;;;;;5066391;28;20577;-82
2022/09/16 10:16:13;;;;;;;0.10;0.10;;;16.30;99.90;;;;;;5060848;28;20445;-82
2022/09/16 10:18:39;;;;;;;0.10;0.10;;;16.80;99.90;;;;;;5063506;28;20467;-81
2022/09/16 10:21:14;;;;;;;0.10;0.10;;;17.00;99.90;;;;;;5058793;28;21007;-84
2022/09/16 10:23:40;;;;;;;0.10;0.10;;;17.90;99.90;;;;;;5065381;28;20518;-84
2022/09/16 10:26:11;;;;;;;0.10;0.10;;;18.30;99.90;;;;;;5063602;28;20436;-84
2022/09/16 10:28:37;;;;;;;0.10;0.10;;;18.60;99.90;;;;;;5062509;28;20649;-84
2022/09/16 10:31:05;;;;;;;0.10;0.10;;;18.60;99.90;;;;;;5067238;28;20451;-84
2022/09/16 10:33:35;;;;;;;0.10;0.10;;;18.90;99.90;;;;;;5068735;28;20232;-85
2022/09/16 10:36:20;;;;;;;0.10;0.10;;;18.10;99.90;;;;;;5066819;28;20432;-85
2022/09/16 10:38:52;;;;;;;0.10;0.10;;;16.90;99.90;;;;;;5069004;28;20470;-84
2022/09/16 10:41:25;;;;;;;0.10;0.10;;;16.10;99.90;;;;;;5069239;28;20889;-83
2022/09/16 10:43:56;;;;;;;0.10;0.10;;;16.20;99.90;;;;;;5067552;28;20936;-84
2022/09/16 10:46:22;;;;;;;0.10;0.10;;;16.80;99.90;;;;;;5064761;28;20448;-83
2022/09/16 10:48:50;;;;;;;0.10;0.10;;;17.80;99.90;;;;;;5067161;28;20428;-82
2022/09/16 10:51:34;;;;;;;0.10;0.10;;;18.60;99.90;;;;;;5069412;28;20189;-82
2022/09/16 10:54:02;;;;;;;0.10;0.10;;;18.10;99.90;;;;;;5066901;28;20435;-85
2022/09/16 10:56:33;;;;;;;0.10;0.10;;;17.00;99.90;;;;;;5069582;28;20423;-82
2022/09/16 10:59:12;;;;;;;0.10;0.10;;;15.90;99.90;;;;;;5066753;28;20428;-82
2022/09/16 11:01:55;;;;;;;0.10;0.10;;;15.80;99.90;;;;;;5063305;28;20483;-83
2022/09/16 11:04:43;;;;;;;0.10;0.10;;;15.80;99.90;;;;;;5065120;28;20553;-83
2022/09/16 11:07:36;;;;;;;0.10;0.10;;;16.40;99.90;;;;;;5067814;28;20486;-82
2022/09/16 11:10:13;;;;;;;0.10;0.10;;;17.30;99.90;;;;;;5068066;28;20939;-84
2022/09/16 11:12:54;;;;;;;0.10;0.10;;;17.30;99.90;;;;;;5051515;28;20547;-83
2022/09/16 11:15:51;;;;;;;0.10;0.10;;;17.20;99.90;;;;;;5068714;28;20974;-82
2022/09/16 11:18:16;;;;;;;0.10;0.10;;;16.70;99.90;;;;;;5068332;28;20440;-83
2022/09/16 11:21:01;;;;;;;0.10;0.10;;;16.20;99.90;;;;;;5069190;28;20827;-84
2022/09/16 11:23:47;;;;;;;0.10;0.10;;;15.10;99.90;;;;;;5068969;28;20186;-84
2022/09/16 11:26:24;;;;;;;0.10;0.10;;;14.90;99.90;;;;;;5070907;28;20506;-82
2022/09/16 11:29:08;;;;;;;0.10;0.10;;;14.50;99.90;;;;;;5068148;28;20463;-82
2022/09/16 11:32:11;;;;;;;0.10;0.10;;;14.20;99.90;;;;;;5072198;28;20833;-82
2022/09/16 11:35:01;;;;;;;0.10;0.10;;;15.20;99.90;;;;;;5071910;28;20912;-84
2022/09/16 11:38:12;;;;;;;0.10;0.10;;;15.70;99.90;;;;;;5070524;28;20455;-84
2022/09/16 11:41:01;;;;;;;0.10;0.10;;;15.60;99.90;;;;;;5064714;28;20432;-85
2022/09/16 11:44:01;;;;;;;0.10;0.10;;;15.60;99.90;;;;;;5066580;28;20619;-84
2022/09/16 11:46:51;;;;;;;0.10;0.10;;;16.80;99.90;;;;;;5052838;28;20466;-83
2022/09/16 11:49:45;;;;;;;0.10;0.10;;;18.30;99.90;;;;;;5066582;28;20508;-84
2022/09/16 11:52:30;;;;;;;0.10;0.10;;;19.60;99.90;;;;;;5067679;28;20839;-85
2022/09/16 11:55:18;;;;;;;0.10;0.00;;;20.30;99.90;;;;;;5068678;28;20444;-84
2022/09/16 11:57:53;;;;;;;0.10;0.00;;;20.90;99.90;;;;;;5070392;28;20439;-84
2022/09/16 12:00:19;;;;;;;0.10;0.00;;;20.80;99.90;;;;;;5068022;28;20437;-85
2022/09/16 12:03:09;;;;;;;0.10;0.00;;;21.20;99.90;;;;;;5072468;28;20447;-83
2022/09/16 12:06:10;;;;;;;0.10;0.00;;;21.00;99.90;;;;;;5069492;28;20747;-84
2022/09/16 12:09:05;;;;;;;0.10;0.00;;;19.20;99.90;;;;;;5077792;28;20463;-83
2022/09/16 12:11:51;;;;;;;0.10;0.10;;;17.70;99.90;;;;;;5071163;28;20482;-84
2022/09/16 12:14:24;;;;;;;0.10;0.10;;;16.80;99.90;;;;;;5068853;28;20540;-85
2022/09/16 12:17:05;;;;;;;0.10;0.10;;;16.40;99.90;;;;;;5066563;28;20992;-83
2022/09/16 12:20:04;;;;;;;0.10;0.10;;;16.50;99.90;;;;;;5060166;28;20445;-85
2022/09/16 12:23:02;;;;;;;0.10;0.10;;;16.80;99.90;;;;;;5069536;28;20466;-84
2022/09/16 12:25:46;;;;;;;0.10;0.10;;;16.20;99.90;;;;;;5082905;28;20492;-83
2022/09/16 12:28:15;;;;;;;0.10;0.10;;;16.00;99.90;;;;;;5064502;28;20938;-83
2022/09/16 12:30:58;;;;;;;0.10;0.10;;;15.80;99.90;;;;;;5068802;28;20444;-83
2022/09/16 12:33:31;;;;;;;0.10;0.10;;;15.40;99.90;;;;;;5056005;28;21275;-80
2022/09/16 12:36:07;;;;;;;0.10;0.10;;;14.80;99.90;;;;;;5071855;28;20421;-81
2022/09/16 12:38:33;;;;;;;0.10;0.10;;;14.50;99.90;;;;;;5070319;28;20444;-81
2022/09/16 12:41:34;;;;;;;0.10;0.10;;;14.60;99.90;;;;;;5070770;28;20451;-82
2022/09/16 12:44:27;;;;;;;0.10;0.10;;;15.30;99.90;;;;;;5049960;28;20481;-83
2022/09/16 12:47:15;;;;;;;0.10;0.10;;;17.30;99.90;;;;;;5058570;28;20452;-82
2022/09/16 12:50:04;;;;;;;0.10;0.00;;;19.00;99.90;;;;;;5060313;28;20473;-83
2022/09/16 12:53:06;;;;;;;0.10;0.10;;;18.70;99.90;;;;;;5063096;28;20495;-83
2022/09/16 12:55:51;;;;;;;0.10;0.10;;;18.40;99.90;;;;;;5059979;28;20822;-82
2022/09/16 12:58:33;;;;;;;0.10;0.00;;;19.10;99.90;;;;;;5083999;28;20788;-82
2022/09/16 13:01:08;;;;;;;0.10;0.00;;;19.30;99.90;;;;;;5065385;28;20510;-85
2022/09/16 13:03:38;;;;;;;0.10;0.10;;;19.50;99.90;;;;;;5061602;28;20439;-85
2022/09/16 13:06:21;;;;;;;0.10;0.10;;;17.90;99.90;;;;;;5069607;28;20472;-85
2022/09/16 13:08:46;;;;;;;0.10;0.10;;;16.60;99.90;;;;;;5067728;28;20939;-84
2022/09/16 13:11:22;;;;;;;0.10;0.10;;;15.80;99.90;;;;;;5056120;28;20539;-81
2022/09/16 13:13:56;;;;;;;0.10;0.10;;;15.50;99.90;;;;;;5071189;28;20247;-82
2022/09/16 13:16:28;;;;;;;0.10;0.10;;;15.30;99.90;;;;;;5069142;28;20443;-80
2022/09/16 13:19:09;;;;;;;0.10;0.10;;;15.20;99.90;;;;;;5049419;28;20540;-81